createdAt,value
2022-11-15T00:00:48.748Z,89.37
2022-11-15T00:03:19.551Z,88.67
2022-11-15T00:05:46.822Z,88.75
2022-11-15T00:08:13.482Z,88.32
2022-11-15T00:10:40.552Z,88.75
2022-11-15T00:13:13.991Z,88.50
2022-11-15T00:15:42.121Z,87.85
2022-11-15T00:18:14.212Z,87.84
2022-11-15T00:20:40.939Z,88.32
2022-11-15T00:23:07.907Z,88.09
2022-11-15T00:25:34.847Z,88.02
2022-11-15T00:28:02.053Z,87.83
2022-11-15T00:30:29.250Z,87.93
2022-11-15T00:32:56.107Z,87.75
2022-11-15T00:35:23.030Z,88.13
2022-11-15T00:37:49.659Z,87.53
2022-11-15T00:40:16.370Z,87.27
2022-11-15T00:42:43.060Z,87.17
2022-11-15T00:45:10.421Z,87.56
2022-11-15T00:47:36.981Z,86.79
2022-11-15T00:50:03.915Z,87.28
2022-11-15T00:52:30.429Z,87.15
2022-11-15T00:54:56.942Z,87.35
2022-11-15T00:57:23.520Z,87.19
2022-11-15T00:59:50.055Z,87.27
2022-11-15T01:02:16.545Z,87.45
2022-11-15T01:04:43.088Z,87.45
2022-11-15T01:07:09.707Z,87.62
2022-11-15T01:09:36.279Z,87.32
2022-11-15T01:12:02.785Z,87.45
2022-11-15T01:14:29.277Z,87.22
2022-11-15T01:16:55.803Z,87.51
2022-11-15T01:19:22.565Z,87.04
2022-11-15T01:21:52.533Z,87.45
2022-11-15T01:24:19.177Z,87.46
2022-11-15T01:26:45.727Z,87.77
2022-11-15T01:29:12.260Z,87.60
2022-11-15T01:31:39.145Z,86.77
2022-11-15T01:34:05.736Z,87.05
2022-11-15T01:36:32.403Z,86.92
2022-11-15T01:39:00.164Z,86.91
2022-11-15T01:41:29.815Z,86.79
2022-11-15T01:44:17.666Z,87.00
2022-11-15T01:46:48.277Z,86.70
2022-11-15T01:49:20.608Z,86.43
2022-11-15T01:51:47.474Z,86.33
2022-11-15T01:54:18.099Z,87.06
2022-11-15T01:56:54.349Z,86.90
2022-11-15T01:59:21.075Z,87.14
2022-11-15T02:01:48.093Z,86.58
2022-11-15T02:04:20.157Z,87.23
2022-11-15T02:06:47.995Z,86.77
2022-11-15T02:09:14.965Z,86.60
2022-11-15T02:11:42.540Z,86.88
2022-11-15T02:14:10.998Z,87.00
2022-11-15T02:16:55.983Z,86.62
2022-11-15T02:19:34.835Z,86.27
2022-11-15T02:22:10.584Z,86.17
2022-11-15T02:25:04.157Z,86.21
2022-11-15T02:27:48.784Z,86.30
2022-11-15T02:30:22.605Z,86.45
2022-11-15T02:32:56.149Z,86.24
2022-11-15T02:35:38.402Z,86.53
2022-11-15T02:38:04.830Z,87.25
2022-11-15T02:40:56.701Z,86.95
2022-11-15T02:43:50.897Z,87.33
2022-11-15T02:47:05.805Z,87.06
2022-11-15T02:49:34.876Z,86.77
2022-11-15T02:52:01.767Z,87.27
2022-11-15T02:54:32.784Z,87.48
2022-11-15T02:57:12.084Z,87.02
2022-11-15T02:59:57.440Z,87.35
2022-11-15T03:02:42.594Z,87.51
2022-11-15T03:05:27.886Z,87.66
2022-11-15T03:08:13.101Z,87.63
2022-11-15T03:10:54.924Z,87.58
2022-11-15T03:13:24.210Z,87.79
2022-11-15T03:16:15.827Z,87.52
2022-11-15T03:18:52.630Z,87.76
2022-11-15T03:21:22.798Z,87.63
2022-11-15T03:23:51.945Z,88.10
2022-11-15T03:26:22.979Z,87.58
2022-11-15T03:28:58.342Z,88.10
2022-11-15T03:31:50.562Z,88.68
2022-11-15T03:34:41.401Z,89.45
2022-11-15T03:37:09.343Z,89.42
2022-11-15T03:39:35.942Z,89.04
2022-11-15T03:42:05.181Z,89.75
2022-11-15T03:44:34.728Z,89.03
2022-11-15T03:47:13.478Z,89.85
2022-11-15T03:49:45.500Z,90.41
2022-11-15T03:52:12.224Z,89.81
2022-11-15T03:54:49.092Z,90.38
2022-11-15T03:57:15.660Z,90.73
2022-11-15T03:59:42.214Z,90.67
2022-11-15T04:02:08.752Z,90.47
2022-11-15T04:04:35.275Z,90.87
2022-11-15T04:07:02.098Z,90.57
2022-11-15T04:09:28.617Z,91.13
2022-11-15T04:11:55.206Z,91.03
2022-11-15T04:14:21.736Z,90.95
2022-11-15T04:16:48.267Z,91.49
2022-11-15T04:19:43.616Z,91.12
2022-11-15T04:22:28.482Z,91.06
2022-11-15T04:24:55.002Z,91.25
2022-11-15T04:27:21.553Z,91.10
2022-11-15T04:29:48.092Z,91.50
2022-11-15T04:32:14.646Z,91.83
2022-11-15T04:34:41.180Z,92.11
2022-11-15T04:37:13.767Z,92.25
2022-11-15T04:39:41.625Z,91.73
2022-11-15T04:42:08.965Z,91.54
2022-11-15T04:44:36.170Z,91.79
2022-11-15T04:47:03.553Z,91.54
2022-11-15T04:49:30.198Z,91.31
2022-11-15T04:51:56.771Z,89.89
2022-11-15T04:54:23.336Z,89.49
2022-11-15T04:56:49.973Z,89.27
2022-11-15T04:59:16.474Z,89.09
2022-11-15T05:01:45.121Z,89.24
2022-11-15T05:04:21.028Z,88.13
2022-11-15T05:06:49.157Z,88.20
2022-11-15T05:09:16.092Z,87.27
2022-11-15T05:11:43.073Z,86.98
2022-11-15T05:14:09.709Z,86.53
2022-11-15T05:16:37.001Z,86.60
2022-11-15T05:19:04.400Z,86.08
2022-11-15T05:21:31.412Z,85.99
2022-11-15T05:23:58.053Z,85.78
2022-11-15T05:26:24.706Z,86.06
2022-11-15T05:28:58.741Z,86.22
2022-11-15T05:31:26.601Z,85.94
2022-11-15T05:33:55.865Z,85.63
2022-11-15T05:36:39.861Z,85.86
2022-11-15T05:39:09.215Z,85.91
2022-11-15T05:41:45.351Z,86.32
2022-11-15T05:44:16.473Z,86.31
2022-11-15T05:46:44.160Z,86.55
2022-11-15T05:49:14.567Z,86.94
2022-11-15T05:51:43.009Z,87.33
2022-11-15T05:54:10.477Z,87.36
2022-11-15T05:56:37.023Z,87.79
2022-11-15T05:59:04.246Z,88.92
2022-11-15T06:01:30.954Z,89.19
2022-11-15T06:03:57.451Z,87.74
2022-11-15T06:06:24.024Z,87.79
2022-11-15T06:08:50.539Z,87.31
2022-11-15T06:11:17.094Z,86.87
2022-11-15T06:13:43.633Z,86.11
2022-11-15T06:16:10.213Z,84.78
2022-11-15T06:18:37.610Z,83.95
2022-11-15T06:21:05.131Z,83.58
2022-11-15T06:23:35.900Z,82.39
2022-11-15T06:26:03.994Z,82.93
2022-11-15T06:28:32.446Z,82.22
2022-11-15T06:31:06.744Z,81.62
2022-11-15T06:33:34.155Z,81.26
2022-11-15T06:36:02.898Z,80.20
2022-11-15T06:38:29.437Z,78.43
2022-11-15T06:40:56.245Z,78.94
2022-11-15T06:43:22.823Z,79.49
2022-11-15T06:45:49.368Z,79.28
2022-11-15T06:48:15.874Z,80.93
2022-11-15T06:50:42.524Z,81.37
2022-11-15T06:53:10.199Z,82.23
2022-11-15T06:55:36.719Z,82.73
2022-11-15T06:58:03.230Z,83.72
2022-11-15T07:00:29.822Z,83.94
2022-11-15T07:02:56.446Z,84.35
2022-11-15T07:05:23.064Z,84.71
2022-11-15T07:07:55.101Z,85.00
2022-11-15T07:10:21.885Z,84.83
2022-11-15T07:12:55.505Z,85.66
2022-11-15T07:15:24.652Z,85.61
2022-11-15T07:17:51.613Z,86.13
2022-11-15T07:20:19.360Z,86.05
2022-11-15T07:22:46.366Z,86.66
2022-11-15T07:25:13.060Z,86.04
2022-11-15T07:27:39.620Z,86.48
2022-11-15T07:30:06.999Z,87.04
2022-11-15T07:32:33.650Z,86.85
2022-11-15T07:35:00.208Z,86.92
2022-11-15T07:37:26.722Z,86.78
2022-11-15T07:39:53.294Z,86.79
2022-11-15T07:42:38.552Z,87.06
2022-11-15T07:45:06.097Z,87.10
2022-11-15T07:47:32.607Z,86.91
2022-11-15T07:49:59.147Z,87.00
2022-11-15T07:52:25.849Z,86.80
2022-11-15T07:54:52.487Z,86.07
2022-11-15T07:57:19.019Z,86.56
2022-11-15T07:59:45.655Z,86.64
2022-11-15T08:02:12.839Z,86.90
2022-11-15T08:04:39.539Z,86.08
2022-11-15T08:07:06.285Z,86.78
2022-11-15T08:09:32.863Z,86.11
2022-11-15T08:11:59.354Z,86.28
2022-11-15T08:14:25.920Z,86.63
2022-11-15T08:16:53.527Z,86.38
2022-11-15T08:19:20.042Z,86.19
2022-11-15T08:21:46.629Z,86.68
2022-11-15T08:24:13.197Z,86.69
2022-11-15T08:26:40.557Z,85.85
2022-11-15T08:29:09.668Z,86.14
2022-11-15T08:31:37.691Z,85.83
2022-11-15T08:34:05.510Z,85.85
2022-11-15T08:36:41.629Z,86.17
2022-11-15T08:39:13.532Z,85.61
2022-11-15T08:41:40.467Z,85.87
2022-11-15T08:44:07.054Z,85.13
2022-11-15T08:46:33.635Z,85.62
2022-11-15T08:49:00.285Z,85.73
2022-11-15T08:51:26.785Z,85.54
2022-11-15T08:53:53.307Z,85.20
2022-11-15T08:56:19.941Z,85.43
2022-11-15T08:58:47.830Z,86.03
2022-11-15T09:01:20.153Z,86.10
2022-11-15T09:03:46.827Z,85.43
2022-11-15T09:06:13.697Z,85.46
2022-11-15T09:08:47.586Z,85.45
2022-11-15T09:11:17.440Z,85.43
2022-11-15T09:13:44.043Z,84.61
2022-11-15T09:16:12.812Z,85.05
2022-11-15T09:18:39.347Z,85.00
2022-11-15T09:21:05.970Z,84.73
2022-11-15T09:23:32.557Z,85.55
2022-11-15T09:26:01.827Z,85.41
2022-11-15T09:28:29.438Z,85.05
2022-11-15T09:31:04.688Z,86.11
2022-11-15T09:33:31.921Z,85.70
2022-11-15T09:36:09.187Z,84.91
2022-11-15T09:38:36.106Z,84.64
2022-11-15T09:41:15.022Z,83.93
2022-11-15T09:44:09.440Z,84.16
2022-11-15T09:46:54.402Z,84.57
2022-11-15T09:49:22.081Z,83.82
2022-11-15T09:51:51.866Z,84.04
2022-11-15T09:54:50.976Z,83.64
2022-11-15T09:57:27.210Z,84.18
2022-11-15T10:03:11.178Z,83.46
2022-11-15T10:05:42.085Z,82.69
2022-11-15T10:08:22.369Z,82.87
2022-11-15T10:11:09.674Z,82.34
2022-11-15T10:13:48.618Z,81.91
2022-11-15T10:16:44.275Z,80.97
2022-11-15T10:19:26.898Z,80.72
2022-11-15T10:22:35.582Z,80.75
2022-11-15T10:25:25.377Z,80.74
2022-11-15T10:28:03.096Z,80.57
2022-11-15T10:30:37.713Z,80.37
2022-11-15T10:33:37.901Z,80.27
2022-11-15T10:36:10.329Z,80.31
2022-11-15T10:38:49.031Z,80.41
2022-11-15T10:41:17.903Z,81.10
2022-11-15T10:43:44.587Z,80.77
2022-11-15T10:46:45.186Z,80.72
2022-11-15T10:49:17.390Z,80.26
2022-11-15T10:52:00.617Z,80.34
2022-11-15T10:54:38.689Z,80.21
2022-11-15T10:57:19.285Z,79.95
2022-11-15T10:59:54.300Z,80.09
2022-11-15T11:02:34.649Z,79.69
2022-11-15T11:05:02.448Z,79.11
2022-11-15T11:07:32.484Z,79.68
2022-11-15T11:10:49.770Z,79.73
2022-11-15T11:13:27.751Z,79.07
2022-11-15T11:16:19.513Z,79.03
2022-11-15T11:18:54.967Z,78.92
2022-11-15T11:21:50.693Z,78.02
2022-11-15T11:24:35.147Z,77.89
2022-11-15T11:27:31.055Z,77.97
2022-11-15T11:30:17.393Z,78.14
2022-11-15T11:33:05.899Z,77.30
2022-11-15T11:35:56.319Z,77.75
2022-11-15T11:38:38.225Z,77.49
2022-11-15T11:41:32.411Z,77.55
2022-11-15T11:44:08.068Z,77.47
2022-11-15T11:46:43.774Z,77.17
2022-11-15T11:49:16.126Z,76.79
2022-11-15T11:52:08.725Z,76.89
2022-11-15T11:54:48.354Z,76.95
2022-11-15T11:57:39.737Z,77.30
2022-11-15T12:00:18.909Z,76.61
2022-11-15T12:03:08.411Z,76.75
2022-11-15T12:05:44.325Z,76.15
2022-11-15T12:08:29.508Z,75.79
2022-11-15T12:11:06.414Z,75.32
2022-11-15T12:13:37.710Z,74.96
2022-11-15T12:16:10.572Z,74.60
2022-11-15T12:18:38.391Z,74.28
2022-11-15T12:21:15.268Z,73.95
2022-11-15T12:23:53.356Z,73.94
2022-11-15T12:26:40.862Z,73.29
2022-11-15T12:29:20.710Z,72.94
2022-11-15T12:31:51.850Z,73.00
2022-11-15T12:34:21.017Z,72.97
2022-11-15T12:36:48.884Z,72.36
2022-11-15T12:39:16.999Z,73.00
2022-11-15T12:41:45.689Z,72.37
2022-11-15T12:44:33.966Z,72.69
2022-11-15T12:47:08.353Z,72.43
2022-11-15T12:49:38.040Z,72.65
2022-11-15T12:52:07.842Z,72.25
2022-11-15T12:54:37.278Z,72.23
2022-11-15T12:57:03.744Z,71.66
2022-11-15T12:59:49.034Z,71.20
2022-11-15T13:02:25.232Z,71.25
2022-11-15T13:04:53.789Z,71.60
2022-11-15T13:07:35.639Z,71.80
2022-11-15T13:10:11.218Z,72.18
2022-11-15T13:12:40.236Z,72.43
2022-11-15T13:15:12.835Z,72.07
2022-11-15T13:17:52.781Z,71.99
2022-11-15T13:20:33.130Z,72.18
2022-11-15T13:23:05.397Z,72.13
2022-11-15T13:25:41.034Z,71.85
2022-11-15T13:28:10.698Z,71.48
2022-11-15T13:30:38.258Z,71.05
2022-11-15T13:33:17.532Z,70.80
2022-11-15T13:35:48.918Z,71.08
2022-11-15T13:38:31.229Z,71.22
2022-11-15T13:40:59.923Z,70.69
2022-11-15T13:43:28.625Z,71.14
2022-11-15T13:46:13.177Z,71.69
2022-11-15T13:48:44.353Z,71.75
2022-11-15T13:51:36.331Z,71.93
2022-11-15T13:54:30.877Z,71.93
2022-11-15T13:56:57.417Z,72.14
2022-11-15T13:59:48.906Z,71.78
2022-11-15T14:02:27.025Z,71.97
2022-11-15T14:05:05.771Z,72.74
2022-11-15T14:07:33.563Z,72.66
2022-11-15T14:10:25.700Z,72.60
2022-11-15T14:12:53.842Z,72.41
2022-11-15T14:15:38.134Z,72.68
2022-11-15T14:18:06.245Z,72.47
2022-11-15T14:20:39.115Z,72.95
2022-11-15T14:23:26.780Z,72.68
2022-11-15T14:26:00.284Z,72.70
2022-11-15T14:28:26.906Z,72.47
2022-11-15T14:30:56.228Z,72.80
2022-11-15T14:33:37.150Z,72.95
2022-11-15T14:36:23.950Z,72.82
2022-11-15T14:38:50.595Z,73.03
2022-11-15T14:41:25.565Z,73.52
2022-11-15T14:43:53.372Z,73.47
2022-11-15T14:46:20.445Z,73.48
2022-11-15T14:48:46.990Z,73.63
2022-11-15T14:51:18.762Z,73.98
2022-11-15T14:53:46.431Z,74.32
2022-11-15T14:56:14.512Z,74.55
2022-11-15T14:58:41.543Z,75.10
2022-11-15T15:01:25.279Z,75.40
2022-11-15T15:03:53.139Z,75.44
2022-11-15T15:06:20.139Z,76.21
2022-11-15T15:08:49.421Z,76.58
2022-11-15T15:11:22.403Z,76.86
2022-11-15T15:13:49.042Z,76.90
2022-11-15T15:16:15.575Z,77.11
2022-11-15T15:18:42.099Z,77.30
2022-11-15T15:21:26.159Z,77.60
2022-11-15T15:23:56.471Z,77.57
2022-11-15T15:26:26.304Z,77.72
2022-11-15T15:28:52.880Z,78.07
2022-11-15T15:31:20.029Z,78.42
2022-11-15T15:33:46.754Z,78.78
2022-11-15T15:36:15.316Z,79.10
2022-11-15T15:38:42.402Z,79.36
2022-11-15T15:41:16.853Z,79.81
2022-11-15T15:43:43.787Z,79.76
2022-11-15T15:46:16.184Z,79.92
2022-11-15T15:48:43.118Z,80.35
2022-11-15T15:51:17.047Z,80.79
2022-11-15T15:53:47.371Z,80.80
2022-11-15T15:56:13.911Z,80.78
2022-11-15T15:58:40.463Z,81.37
2022-11-15T16:01:07.060Z,81.55
2022-11-15T16:03:33.996Z,82.37
2022-11-15T16:06:00.602Z,82.62
2022-11-15T16:08:42.472Z,82.54
2022-11-15T16:11:17.208Z,82.86
2022-11-15T16:13:43.756Z,83.05
2022-11-15T16:16:14.416Z,83.02
2022-11-15T16:18:40.922Z,83.28
2022-11-15T16:21:09.470Z,83.80
2022-11-15T16:23:35.976Z,83.72
2022-11-15T16:26:04.018Z,83.76
2022-11-15T16:28:33.739Z,83.71
2022-11-15T16:31:11.704Z,83.76
2022-11-15T16:33:39.040Z,84.25
2022-11-15T16:36:07.770Z,84.91
2022-11-15T16:38:34.827Z,84.85
2022-11-15T16:41:01.540Z,85.33
2022-11-15T16:43:28.586Z,84.87
2022-11-15T16:45:55.166Z,84.55
2022-11-15T16:48:27.253Z,84.45
2022-11-15T16:50:57.656Z,84.33
2022-11-15T16:53:25.199Z,84.26
2022-11-15T16:55:51.720Z,84.30
2022-11-15T16:58:18.277Z,84.31
2022-11-15T17:00:45.118Z,84.74
2022-11-15T17:03:12.052Z,84.38
2022-11-15T17:05:38.631Z,84.39
2022-11-15T17:08:05.239Z,84.29
2022-11-15T17:10:31.797Z,84.64
2022-11-15T17:12:58.397Z,84.60
2022-11-15T17:15:25.445Z,84.75
2022-11-15T17:17:55.526Z,84.72
2022-11-15T17:20:24.625Z,85.05
2022-11-15T17:22:52.724Z,85.31
2022-11-15T17:25:19.291Z,85.11
2022-11-15T17:27:46.557Z,85.01
2022-11-15T17:30:15.521Z,85.55
2022-11-15T17:32:42.984Z,85.41
2022-11-15T17:35:15.381Z,85.14
2022-11-15T17:37:42.866Z,85.50
2022-11-15T17:40:10.322Z,85.38
2022-11-15T17:42:36.942Z,85.60
2022-11-15T17:45:09.334Z,86.24
2022-11-15T17:47:37.070Z,85.84
2022-11-15T17:50:04.369Z,85.98
2022-11-15T17:52:30.867Z,86.12
2022-11-15T17:54:57.467Z,86.34
2022-11-15T17:57:24.179Z,86.77
2022-11-15T17:59:50.693Z,86.40
2022-11-15T18:02:17.356Z,86.50
2022-11-15T18:04:43.867Z,86.95
2022-11-15T18:07:12.349Z,87.31
2022-11-15T18:09:42.378Z,87.78
2022-11-15T18:12:09.903Z,87.68
2022-11-15T18:14:36.638Z,88.43
2022-11-15T18:17:03.301Z,87.88
2022-11-15T18:19:29.863Z,87.92
2022-11-15T18:21:56.524Z,88.32
2022-11-15T18:24:29.205Z,88.13
2022-11-15T18:26:56.611Z,88.73
2022-11-15T18:29:24.692Z,88.69
2022-11-15T18:31:55.560Z,88.98
2022-11-15T18:34:24.013Z,89.14
2022-11-15T18:36:52.820Z,89.04
2022-11-15T18:39:19.865Z,88.88
2022-11-15T18:41:46.980Z,89.65
2022-11-15T18:44:13.770Z,89.42
2022-11-15T18:46:40.444Z,89.95
2022-11-15T18:49:12.378Z,89.70
2022-11-15T18:51:41.975Z,89.77
2022-11-15T18:54:11.446Z,90.10
2022-11-15T18:56:38.846Z,90.19
2022-11-15T18:59:06.246Z,90.02
2022-11-15T19:01:35.455Z,90.73
2022-11-15T19:04:20.956Z,90.75
2022-11-15T19:06:49.943Z,90.85
2022-11-15T19:09:18.284Z,90.80
2022-11-15T19:11:46.754Z,90.28
2022-11-15T19:14:15.650Z,90.90
2022-11-15T19:16:54.731Z,90.45
2022-11-15T19:19:23.809Z,91.11
2022-11-15T19:21:51.642Z,90.76
2022-11-15T19:24:18.343Z,90.21
2022-11-15T19:26:45.665Z,90.58
2022-11-15T19:29:13.799Z,90.09
2022-11-15T19:31:40.648Z,90.42
2022-11-15T19:34:08.127Z,89.97
2022-11-15T19:36:39.935Z,90.07
2022-11-15T19:39:09.948Z,89.60
2022-11-15T19:41:38.774Z,89.97
2022-11-15T19:44:06.599Z,90.11
2022-11-15T19:46:33.811Z,90.55
2022-11-15T19:49:00.586Z,89.98
2022-11-15T19:51:29.369Z,90.56
2022-11-15T19:53:58.014Z,90.08
2022-11-15T19:56:24.866Z,90.07
2022-11-15T19:58:53.256Z,90.07
2022-11-15T20:01:31.763Z,90.36
2022-11-15T20:03:59.930Z,90.34
2022-11-15T20:06:29.504Z,90.49
2022-11-15T20:08:56.580Z,90.54
2022-11-15T20:11:23.538Z,90.74
2022-11-15T20:13:50.417Z,90.56
2022-11-15T20:16:20.073Z,90.40
2022-11-15T20:18:48.021Z,91.05
2022-11-15T20:21:14.998Z,91.49
2022-11-15T20:23:41.741Z,91.39
2022-11-15T20:26:09.470Z,91.26
2022-11-15T20:28:38.405Z,90.75
2022-11-15T20:31:05.782Z,90.97
2022-11-15T20:33:32.496Z,91.47
2022-11-15T20:36:03.553Z,91.46
2022-11-15T20:38:30.195Z,91.74
2022-11-15T20:41:00.174Z,92.09
2022-11-15T20:43:27.558Z,92.20
2022-11-15T20:45:54.165Z,92.21
2022-11-15T20:48:20.837Z,92.15
2022-11-15T20:50:47.691Z,92.47
2022-11-15T20:53:17.851Z,92.59
2022-11-15T20:55:49.706Z,92.37
2022-11-15T20:58:17.529Z,92.31
2022-11-15T21:00:45.731Z,92.81
2022-11-15T21:03:14.109Z,92.66
2022-11-15T21:05:42.453Z,93.01
2022-11-15T21:08:10.138Z,92.14
2022-11-15T21:10:55.053Z,92.68
2022-11-15T21:13:22.146Z,93.03
2022-11-15T21:15:48.743Z,92.89
2022-11-15T21:18:15.525Z,92.58
2022-11-15T21:20:42.515Z,92.60
2022-11-15T21:23:09.186Z,92.76
2022-11-15T21:25:36.005Z,93.11
2022-11-15T21:28:02.971Z,92.80
2022-11-15T21:30:29.973Z,93.05
2022-11-15T21:32:56.625Z,93.16
2022-11-15T21:35:23.894Z,93.29
2022-11-15T21:37:56.071Z,92.75
2022-11-15T21:40:22.813Z,92.82
2022-11-15T21:42:49.338Z,93.45
2022-11-15T21:45:15.932Z,92.75
2022-11-15T21:47:46.062Z,93.13
2022-11-15T21:50:13.575Z,93.11
2022-11-15T21:52:40.817Z,92.96
2022-11-15T21:55:08.228Z,93.17
2022-11-15T21:57:34.880Z,93.20
2022-11-15T22:00:20.404Z,93.46
2022-11-15T22:02:46.949Z,92.97
2022-11-15T22:05:13.653Z,92.56
2022-11-15T22:07:40.182Z,92.51
2022-11-15T22:10:07.152Z,92.73
2022-11-15T22:12:33.706Z,93.04
2022-11-15T22:15:00.319Z,93.24
2022-11-15T22:17:46.868Z,93.00
2022-11-15T22:20:37.602Z,93.05
2022-11-15T22:23:00.612Z,93.22
2022-11-15T22:25:27.194Z,92.92
2022-11-15T22:27:54.459Z,92.41
2022-11-15T22:30:21.692Z,93.07
2022-11-15T22:32:48.273Z,93.08
2022-11-15T22:35:15.827Z,92.55
2022-11-15T22:37:42.356Z,92.53
2022-11-15T22:40:09.658Z,92.59
2022-11-15T22:42:36.392Z,92.75
2022-11-15T22:45:03.107Z,92.77
2022-11-15T22:47:29.691Z,92.06
2022-11-15T22:49:56.306Z,92.41
2022-11-15T22:52:22.830Z,92.00
2022-11-15T22:54:49.436Z,92.09
2022-11-15T22:57:16.048Z,92.20
2022-11-15T22:59:42.768Z,92.02
2022-11-15T23:02:09.317Z,92.21
2022-11-15T23:04:35.879Z,92.46
2022-11-15T23:07:02.570Z,92.18
2022-11-15T23:09:29.163Z,91.41
2022-11-15T23:12:14.404Z,91.50
2022-11-15T23:14:41.030Z,91.01
2022-11-15T23:17:07.603Z,90.62
2022-11-15T23:19:34.216Z,90.35
2022-11-15T23:22:19.399Z,90.50
2022-11-15T23:24:46.571Z,90.91
2022-11-15T23:27:15.598Z,90.16
2022-11-15T23:30:14.361Z,89.91
2022-11-15T23:32:59.149Z,90.50
2022-11-15T23:35:26.786Z,90.47
2022-11-15T23:37:53.314Z,89.49
2022-11-15T23:40:20.065Z,90.06
2022-11-15T23:42:46.621Z,89.50
2022-11-15T23:45:13.200Z,89.47
2022-11-15T23:47:39.883Z,89.64
2022-11-15T23:50:06.995Z,89.33
2022-11-15T23:52:33.591Z,89.20
2022-11-15T23:55:00.162Z,89.73
2022-11-15T23:57:26.742Z,89.52
2022-11-15T23:59:53.591Z,89.29
